Terminal Aerodrome Forecast
Issued by NWS Wilmington, OH

Current Version | Previous Version | Text Only | Print | Product List | Glossary Off
Versions: 1 2 3 4 5 6 7 8 9 10 11 12 13 14 15 16 17 18 19 20 21 22 23 24 25

000
FTUS41 KILN 290104 AAA
TAFDAY
TAF AMD
KDAY 290104Z 2901/2924 35008KT 5SM BR OVC007
     FM290600 33004KT 3SM BR OVC005
     FM291400 30005KT P6SM BKN015
     FM291800 31009KT P6SM BKN035=

USA.gov is the U.S. government's official web portal to all federal, state and local government web resources and services.